sensor_id;sensor_type;location;lat;lon;timestamp;temperature;humidity
10419;DHT22;5256;48.728;9.140;2022-09-30T00:00:28;7.00;99.90
10419;DHT22;5256;48.728;9.140;2022-09-30T00:02:54;7.00;99.90
10419;DHT22;5256;48.728;9.140;2022-09-30T00:05:19;7.00;99.90
10419;DHT22;5256;48.728;9.140;2022-09-30T00:07:45;7.10;99.90
10419;DHT22;5256;48.728;9.140;2022-09-30T00:10:11;7.10;99.90
10419;DHT22;5256;48.728;9.140;2022-09-30T00:12:37;7.10;99.90
10419;DHT22;5256;48.728;9.140;2022-09-30T00:15:04;7.20;99.90
10419;DHT22;5256;48.728;9.140;2022-09-30T00:17:30;7.20;99.90
10419;DHT22;5256;48.728;9.140;2022-09-30T00:19:56;7.10;99.90
10419;DHT22;5256;48.728;9.140;2022-09-30T00:22:21;7.20;99.90
10419;DHT22;5256;48.728;9.140;2022-09-30T00:24:47;7.20;99.90
10419;DHT22;5256;48.728;9.140;2022-09-30T00:27:12;7.20;99.90
10419;DHT22;5256;48.728;9.140;2022-09-30T00:29:43;7.20;99.90
10419;DHT22;5256;48.728;9.140;2022-09-30T00:32:08;7.30;99.90
10419;DHT22;5256;48.728;9.140;2022-09-30T00:34:34;7.30;99.90
10419;DHT22;5256;48.728;9.140;2022-09-30T00:36:59;7.30;99.90
10419;DHT22;5256;48.728;9.140;2022-09-30T00:39:28;7.30;99.90
10419;DHT22;5256;48.728;9.140;2022-09-30T00:42:02;7.40;99.90
10419;DHT22;5256;48.728;9.140;2022-09-30T00:44:54;7.50;99.90
10419;DHT22;5256;48.728;9.140;2022-09-30T00:47:41;7.60;99.90
10419;DHT22;5256;48.728;9.140;2022-09-30T00:50:24;7.70;99.90
10419;DHT22;5256;48.728;9.140;2022-09-30T00:57:54;7.60;99.90
10419;DHT22;5256;48.728;9.140;2022-09-30T01:00:20;7.60;99.90
10419;DHT22;5256;48.728;9.140;2022-09-30T01:02:47;7.60;99.90
10419;DHT22;5256;48.728;9.140;2022-09-30T01:05:13;7.70;99.90
10419;DHT22;5256;48.728;9.140;2022-09-30T01:07:38;7.70;99.90
10419;DHT22;5256;48.728;9.140;2022-09-30T01:10:04;7.90;99.90
10419;DHT22;5256;48.728;9.140;2022-09-30T01:12:30;7.80;99.90
10419;DHT22;5256;48.728;9.140;2022-09-30T01:14:57;7.80;99.90
10419;DHT22;5256;48.728;9.140;2022-09-30T01:42:53;7.90;99.90
10419;DHT22;5256;48.728;9.140;2022-09-30T01:45:33;7.80;99.90
10419;DHT22;5256;48.728;9.140;2022-09-30T01:48:04;7.70;99.90
10419;DHT22;5256;48.728;9.140;2022-09-30T01:50:43;7.60;99.90
10419;DHT22;5256;48.728;9.140;2022-09-30T01:53:26;7.50;99.90
10419;DHT22;5256;48.728;9.140;2022-09-30T01:56:04;7.50;99.90
10419;DHT22;5256;48.728;9.140;2022-09-30T01:58:41;7.60;99.90
10419;DHT22;5256;48.728;9.140;2022-09-30T02:01:13;7.50;99.90
10419;DHT22;5256;48.728;9.140;2022-09-30T02:03:48;7.50;99.90
10419;DHT22;5256;48.728;9.140;2022-09-30T02:06:20;7.40;99.90
10419;DHT22;5256;48.728;9.140;2022-09-30T02:08:57;7.40;99.90
10419;DHT22;5256;48.728;9.140;2022-09-30T02:11:28;7.30;99.90
10419;DHT22;5256;48.728;9.140;2022-09-30T02:14:31;7.30;99.90
10419;DHT22;5256;48.728;9.140;2022-09-30T02:20:05;7.40;99.90
10419;DHT22;5256;48.728;9.140;2022-09-30T02:22:47;7.40;99.90
10419;DHT22;5256;48.728;9.140;2022-09-30T02:25:22;7.30;99.90
10419;DHT22;5256;48.728;9.140;2022-09-30T02:27:57;7.30;99.90
10419;DHT22;5256;48.728;9.140;2022-09-30T02:30:24;7.30;99.90
10419;DHT22;5256;48.728;9.140;2022-09-30T02:32:57;7.20;99.90
10419;DHT22;5256;48.728;9.140;2022-09-30T02:35:40;7.20;99.90
10419;DHT22;5256;48.728;9.140;2022-09-30T02:38:18;7.20;99.90
10419;DHT22;5256;48.728;9.140;2022-09-30T02:40:48;7.20;99.90
10419;DHT22;5256;48.728;9.140;2022-09-30T02:43:17;7.20;99.90
10419;DHT22;5256;48.728;9.140;2022-09-30T02:56:12;7.30;99.90
10419;DHT22;5256;48.728;9.140;2022-09-30T02:58:41;7.30;99.90
10419;DHT22;5256;48.728;9.140;2022-09-30T03:01:12;7.20;99.90
10419;DHT22;5256;48.728;9.140;2022-09-30T03:03:46;7.20;99.90
10419;DHT22;5256;48.728;9.140;2022-09-30T03:06:13;7.30;99.90
10419;DHT22;5256;48.728;9.140;2022-09-30T03:08:39;7.40;99.90
10419;DHT22;5256;48.728;9.140;2022-09-30T03:11:04;7.50;99.90
10419;DHT22;5256;48.728;9.140;2022-09-30T03:19:15;7.20;99.90
10419;DHT22;5256;48.728;9.140;2022-09-30T03:24:42;7.20;99.90
10419;DHT22;5256;48.728;9.140;2022-09-30T03:30:04;7.20;99.90
10419;DHT22;5256;48.728;9.140;2022-09-30T03:37:59;7.30;99.90
10419;DHT22;5256;48.728;9.140;2022-09-30T03:40:37;7.30;99.90
10419;DHT22;5256;48.728;9.140;2022-09-30T03:43:15;7.20;99.90
10419;DHT22;5256;48.728;9.140;2022-09-30T03:45:52;7.10;99.90
10419;DHT22;5256;48.728;9.140;2022-09-30T03:48:20;7.10;99.90
10419;DHT22;5256;48.728;9.140;2022-09-30T03:50:47;7.10;99.90
10419;DHT22;5256;48.728;9.140;2022-09-30T03:53:13;7.20;99.90
10419;DHT22;5256;48.728;9.140;2022-09-30T03:55:50;7.20;99.90
10419;DHT22;5256;48.728;9.140;2022-09-30T03:58:18;7.20;99.90
10419;DHT22;5256;48.728;9.140;2022-09-30T04:00:47;7.30;99.90
10419;DHT22;5256;48.728;9.140;2022-09-30T04:03:14;7.30;99.90
10419;DHT22;5256;48.728;9.140;2022-09-30T04:05:40;7.40;99.90
10419;DHT22;5256;48.728;9.140;2022-09-30T04:08:05;7.20;99.90
10419;DHT22;5256;48.728;9.140;2022-09-30T04:10:31;7.20;99.90
10419;DHT22;5256;48.728;9.140;2022-09-30T04:12:56;7.10;99.90
10419;DHT22;5256;48.728;9.140;2022-09-30T04:15:22;7.10;99.90
10419;DHT22;5256;48.728;9.140;2022-09-30T04:17:48;7.00;99.90
10419;DHT22;5256;48.728;9.140;2022-09-30T04:20:14;7.10;99.90
10419;DHT22;5256;48.728;9.140;2022-09-30T04:22:39;7.20;99.90
10419;DHT22;5256;48.728;9.140;2022-09-30T04:25:05;7.20;99.90
10419;DHT22;5256;48.728;9.140;2022-09-30T04:27:31;7.10;99.90
10419;DHT22;5256;48.728;9.140;2022-09-30T04:29:57;7.20;99.90
10419;DHT22;5256;48.728;9.140;2022-09-30T04:32:22;7.20;99.90
10419;DHT22;5256;48.728;9.140;2022-09-30T04:34:50;7.10;99.90
10419;DHT22;5256;48.728;9.140;2022-09-30T04:37:15;7.10;99.90
10419;DHT22;5256;48.728;9.140;2022-09-30T04:39:41;7.00;99.90
10419;DHT22;5256;48.728;9.140;2022-09-30T04:42:06;6.90;99.90
10419;DHT22;5256;48.728;9.140;2022-09-30T04:44:32;6.80;99.90
10419;DHT22;5256;48.728;9.140;2022-09-30T04:46:59;6.70;99.90
10419;DHT22;5256;48.728;9.140;2022-09-30T04:49:25;6.70;99.90
10419;DHT22;5256;48.728;9.140;2022-09-30T04:51:50;6.60;99.90
10419;DHT22;5256;48.728;9.140;2022-09-30T04:54:16;6.50;99.90
10419;DHT22;5256;48.728;9.140;2022-09-30T04:56:41;6.30;99.90
10419;DHT22;5256;48.728;9.140;2022-09-30T04:59:07;6.20;99.90
10419;DHT22;5256;48.728;9.140;2022-09-30T05:01:33;6.10;99.90
10419;DHT22;5256;48.728;9.140;2022-09-30T05:03:58;6.00;99.90
10419;DHT22;5256;48.728;9.140;2022-09-30T05:06:24;6.00;99.90
10419;DHT22;5256;48.728;9.140;2022-09-30T05:08:49;5.90;99.90
10419;DHT22;5256;48.728;9.140;2022-09-30T05:11:20;5.90;99.90
10419;DHT22;5256;48.728;9.140;2022-09-30T05:13:46;5.90;99.90
10419;DHT22;5256;48.728;9.140;2022-09-30T05:16:13;6.00;99.90
10419;DHT22;5256;48.728;9.140;2022-09-30T05:18:39;6.00;99.90
10419;DHT22;5256;48.728;9.140;2022-09-30T05:21:07;5.90;99.90
10419;DHT22;5256;48.728;9.140;2022-09-30T05:23:33;5.90;99.90
10419;DHT22;5256;48.728;9.140;2022-09-30T05:26:00;5.90;99.90
10419;DHT22;5256;48.728;9.140;2022-09-30T05:28:26;5.80;99.90
10419;DHT22;5256;48.728;9.140;2022-09-30T05:30:56;5.80;99.90
10419;DHT22;5256;48.728;9.140;2022-09-30T05:33:24;5.80;99.90
10419;DHT22;5256;48.728;9.140;2022-09-30T05:35:49;5.80;99.90
10419;DHT22;5256;48.728;9.140;2022-09-30T05:38:15;5.80;99.90
10419;DHT22;5256;48.728;9.140;2022-09-30T05:40:40;5.80;99.90
10419;DHT22;5256;48.728;9.140;2022-09-30T05:43:06;5.80;99.90
10419;DHT22;5256;48.728;9.140;2022-09-30T05:45:33;5.90;99.90
10419;DHT22;5256;48.728;9.140;2022-09-30T05:47:59;5.90;99.90
10419;DHT22;5256;48.728;9.140;2022-09-30T05:50:25;6.00;99.90
10419;DHT22;5256;48.728;9.140;2022-09-30T05:52:51;6.20;99.90
10419;DHT22;5256;48.728;9.140;2022-09-30T05:55:18;6.30;99.90
10419;DHT22;5256;48.728;9.140;2022-09-30T05:57:47;6.40;99.90
10419;DHT22;5256;48.728;9.140;2022-09-30T06:00:14;6.50;99.90
10419;DHT22;5256;48.728;9.140;2022-09-30T06:02:40;6.60;99.90
10419;DHT22;5256;48.728;9.140;2022-09-30T06:05:07;6.70;99.90
10419;DHT22;5256;48.728;9.140;2022-09-30T06:07:33;6.90;99.90
10419;DHT22;5256;48.728;9.140;2022-09-30T06:09:59;7.00;99.90
10419;DHT22;5256;48.728;9.140;2022-09-30T06:12:25;7.20;99.90
10419;DHT22;5256;48.728;9.140;2022-09-30T06:14:53;7.30;99.90
10419;DHT22;5256;48.728;9.140;2022-09-30T06:17:18;7.30;99.90
10419;DHT22;5256;48.728;9.140;2022-09-30T06:19:44;7.40;99.90
10419;DHT22;5256;48.728;9.140;2022-09-30T06:22:10;7.40;99.90
10419;DHT22;5256;48.728;9.140;2022-09-30T06:24:35;7.60;99.90
10419;DHT22;5256;48.728;9.140;2022-09-30T06:27:01;7.80;99.90
10419;DHT22;5256;48.728;9.140;2022-09-30T06:29:27;7.90;99.90
10419;DHT22;5256;48.728;9.140;2022-09-30T06:31:52;8.10;99.90
10419;DHT22;5256;48.728;9.140;2022-09-30T06:34:18;8.30;99.90
10419;DHT22;5256;48.728;9.140;2022-09-30T06:36:43;8.50;99.90
10419;DHT22;5256;48.728;9.140;2022-09-30T06:39:09;8.50;99.90
10419;DHT22;5256;48.728;9.140;2022-09-30T06:41:34;8.60;99.90
10419;DHT22;5256;48.728;9.140;2022-09-30T06:44:04;8.70;99.90
10419;DHT22;5256;48.728;9.140;2022-09-30T06:46:30;8.70;99.90
10419;DHT22;5256;48.728;9.140;2022-09-30T06:48:56;9.00;99.90
10419;DHT22;5256;48.728;9.140;2022-09-30T06:51:23;9.20;99.90
10419;DHT22;5256;48.728;9.140;2022-09-30T06:53:53;9.40;99.90
10419;DHT22;5256;48.728;9.140;2022-09-30T06:56:20;9.60;99.90
10419;DHT22;5256;48.728;9.140;2022-09-30T06:58:47;9.70;99.90
10419;DHT22;5256;48.728;9.140;2022-09-30T07:01:13;9.60;99.90
10419;DHT22;5256;48.728;9.140;2022-09-30T07:03:43;9.40;99.90
10419;DHT22;5256;48.728;9.140;2022-09-30T07:06:11;9.60;99.90
10419;DHT22;5256;48.728;9.140;2022-09-30T07:08:38;9.70;99.90
10419;DHT22;5256;48.728;9.140;2022-09-30T07:11:07;10.00;99.90
10419;DHT22;5256;48.728;9.140;2022-09-30T07:13:37;9.90;99.90
10419;DHT22;5256;48.728;9.140;2022-09-30T07:16:04;9.90;99.90
10419;DHT22;5256;48.728;9.140;2022-09-30T07:18:29;10.00;99.90
10419;DHT22;5256;48.728;9.140;2022-09-30T07:20:55;10.10;99.90
10419;DHT22;5256;48.728;9.140;2022-09-30T07:23:22;10.20;99.90
10419;DHT22;5256;48.728;9.140;2022-09-30T07:25:55;10.30;99.90
10419;DHT22;5256;48.728;9.140;2022-09-30T07:28:22;10.30;99.90
10419;DHT22;5256;48.728;9.140;2022-09-30T07:30:52;10.50;99.90
10419;DHT22;5256;48.728;9.140;2022-09-30T07:33:20;10.50;99.90
10419;DHT22;5256;48.728;9.140;2022-09-30T07:35:52;10.30;99.90
10419;DHT22;5256;48.728;9.140;2022-09-30T07:38:20;10.30;99.90
10419;DHT22;5256;48.728;9.140;2022-09-30T07:43:19;10.10;99.90
10419;DHT22;5256;48.728;9.140;2022-09-30T07:45:45;10.20;99.90
10419;DHT22;5256;48.728;9.140;2022-09-30T07:48:11;10.30;99.90
10419;DHT22;5256;48.728;9.140;2022-09-30T07:50:56;10.20;99.90
10419;DHT22;5256;48.728;9.140;2022-09-30T07:53:22;10.30;99.90
10419;DHT22;5256;48.728;9.140;2022-09-30T07:55:48;10.30;99.90
10419;DHT22;5256;48.728;9.140;2022-09-30T07:58:13;10.60;99.90
10419;DHT22;5256;48.728;9.140;2022-09-30T08:00:39;10.70;99.90
10419;DHT22;5256;48.728;9.140;2022-09-30T08:03:04;10.80;99.90
10419;DHT22;5256;48.728;9.140;2022-09-30T08:05:30;10.80;99.90
10419;DHT22;5256;48.728;9.140;2022-09-30T08:07:55;10.90;99.90
10419;DHT22;5256;48.728;9.140;2022-09-30T08:10:21;10.90;99.90
10419;DHT22;5256;48.728;9.140;2022-09-30T08:12:46;10.90;99.90
10419;DHT22;5256;48.728;9.140;2022-09-30T08:15:12;10.80;99.90
10419;DHT22;5256;48.728;9.140;2022-09-30T08:17:37;11.10;99.90
10419;DHT22;5256;48.728;9.140;2022-09-30T08:20:03;11.20;99.90
10419;DHT22;5256;48.728;9.140;2022-09-30T08:22:29;11.20;99.90
10419;DHT22;5256;48.728;9.140;2022-09-30T08:24:54;11.30;99.90
10419;DHT22;5256;48.728;9.140;2022-09-30T08:27:20;11.30;99.90
10419;DHT22;5256;48.728;9.140;2022-09-30T08:29:45;11.30;99.90
10419;DHT22;5256;48.728;9.140;2022-09-30T08:32:11;11.30;99.90
10419;DHT22;5256;48.728;9.140;2022-09-30T08:34:36;11.40;99.90
10419;DHT22;5256;48.728;9.140;2022-09-30T08:37:04;11.60;99.90
10419;DHT22;5256;48.728;9.140;2022-09-30T08:39:29;11.90;99.90
10419;DHT22;5256;48.728;9.140;2022-09-30T08:42:04;12.10;99.90
10419;DHT22;5256;48.728;9.140;2022-09-30T08:44:43;12.40;99.90
10419;DHT22;5256;48.728;9.140;2022-09-30T08:52:21;12.20;99.90
10419;DHT22;5256;48.728;9.140;2022-09-30T08:54:51;12.00;99.90
10419;DHT22;5256;48.728;9.140;2022-09-30T08:57:19;12.00;99.90
10419;DHT22;5256;48.728;9.140;2022-09-30T08:59:52;12.10;99.90
10419;DHT22;5256;48.728;9.140;2022-09-30T09:02:24;12.40;99.90
10419;DHT22;5256;48.728;9.140;2022-09-30T09:04:53;12.50;99.90
10419;DHT22;5256;48.728;9.140;2022-09-30T09:07:38;12.40;99.90
10419;DHT22;5256;48.728;9.140;2022-09-30T09:13:07;12.80;99.90
10419;DHT22;5256;48.728;9.140;2022-09-30T09:15:47;12.80;99.90
10419;DHT22;5256;48.728;9.140;2022-09-30T09:24:01;12.50;99.90
10419;DHT22;5256;48.728;9.140;2022-09-30T09:26:30;12.70;99.90
10419;DHT22;5256;48.728;9.140;2022-09-30T09:32:14;12.80;99.90
10419;DHT22;5256;48.728;9.140;2022-09-30T09:34:41;12.90;99.90
10419;DHT22;5256;48.728;9.140;2022-09-30T09:37:29;13.10;99.90
10419;DHT22;5256;48.728;9.140;2022-09-30T09:40:25;13.40;99.90
10419;DHT22;5256;48.728;9.140;2022-09-30T09:43:22;13.40;99.90
10419;DHT22;5256;48.728;9.140;2022-09-30T09:45:59;13.50;99.90
10419;DHT22;5256;48.728;9.140;2022-09-30T09:48:27;13.60;99.90
10419;DHT22;5256;48.728;9.140;2022-09-30T09:53:50;14.00;99.90
10419;DHT22;5256;48.728;9.140;2022-09-30T09:56:20;14.00;99.90
10419;DHT22;5256;48.728;9.140;2022-09-30T09:59:06;13.80;99.90
10419;DHT22;5256;48.728;9.140;2022-09-30T10:01:34;13.80;99.90
10419;DHT22;5256;48.728;9.140;2022-09-30T10:09:21;13.70;99.90
10419;DHT22;5256;48.728;9.140;2022-09-30T10:11:47;13.70;99.90
10419;DHT22;5256;48.728;9.140;2022-09-30T10:14:20;13.80;99.90
10419;DHT22;5256;48.728;9.140;2022-09-30T10:16:47;13.70;99.90
10419;DHT22;5256;48.728;9.140;2022-09-30T10:19:20;13.90;99.90
10419;DHT22;5256;48.728;9.140;2022-09-30T10:21:47;13.60;99.90
10419;DHT22;5256;48.728;9.140;2022-09-30T10:24:39;13.90;99.90
10419;DHT22;5256;48.728;9.140;2022-09-30T10:27:26;14.00;99.90
10419;DHT22;5256;48.728;9.140;2022-09-30T10:29:52;14.10;99.90
10419;DHT22;5256;48.728;9.140;2022-09-30T10:32:18;14.10;99.90
10419;DHT22;5256;48.728;9.140;2022-09-30T10:34:45;14.10;99.90
10419;DHT22;5256;48.728;9.140;2022-09-30T10:37:14;14.10;99.90
10419;DHT22;5256;48.728;9.140;2022-09-30T10:39:43;14.10;99.90
10419;DHT22;5256;48.728;9.140;2022-09-30T10:42:20;14.20;99.90
10419;DHT22;5256;48.728;9.140;2022-09-30T10:44:52;14.10;99.90
10419;DHT22;5256;48.728;9.140;2022-09-30T10:47:22;14.30;99.90
10419;DHT22;5256;48.728;9.140;2022-09-30T10:52:26;14.30;99.90
10419;DHT22;5256;48.728;9.140;2022-09-30T10:54:55;14.30;99.90
10419;DHT22;5256;48.728;9.140;2022-09-30T10:57:41;14.30;99.90
10419;DHT22;5256;48.728;9.140;2022-09-30T11:00:13;14.10;99.90
10419;DHT22;5256;48.728;9.140;2022-09-30T11:03:15;14.10;99.90
10419;DHT22;5256;48.728;9.140;2022-09-30T11:05:48;14.10;99.90
10419;DHT22;5256;48.728;9.140;2022-09-30T11:10:51;14.20;99.90
10419;DHT22;5256;48.728;9.140;2022-09-30T11:13:24;13.90;99.90
10419;DHT22;5256;48.728;9.140;2022-09-30T11:27:01;13.90;99.90
10419;DHT22;5256;48.728;9.140;2022-09-30T11:32:48;13.90;99.90
10419;DHT22;5256;48.728;9.140;2022-09-30T11:38:39;14.00;99.90
10419;DHT22;5256;48.728;9.140;2022-09-30T11:41:21;14.10;99.90
10419;DHT22;5256;48.728;9.140;2022-09-30T11:47:15;14.20;99.90
10419;DHT22;5256;48.728;9.140;2022-09-30T11:52:54;14.10;99.90
10419;DHT22;5256;48.728;9.140;2022-09-30T12:00:24;14.20;99.90
10419;DHT22;5256;48.728;9.140;2022-09-30T12:02:54;14.30;99.90
10419;DHT22;5256;48.728;9.140;2022-09-30T12:05:26;14.40;99.90
10419;DHT22;5256;48.728;9.140;2022-09-30T12:08:29;14.40;99.90
10419;DHT22;5256;48.728;9.140;2022-09-30T12:14:02;14.30;99.90
10419;DHT22;5256;48.728;9.140;2022-09-30T12:16:31;14.40;99.90
10419;DHT22;5256;48.728;9.140;2022-09-30T12:19:21;14.40;99.90
10419;DHT22;5256;48.728;9.140;2022-09-30T12:24:36;14.40;99.90
10419;DHT22;5256;48.728;9.140;2022-09-30T12:27:03;14.40;99.90
10419;DHT22;5256;48.728;9.140;2022-09-30T12:29:37;14.30;99.90
10419;DHT22;5256;48.728;9.140;2022-09-30T12:37:46;14.50;99.90
10419;DHT22;5256;48.728;9.140;2022-09-30T12:48:23;14.80;99.90
10419;DHT22;5256;48.728;9.140;2022-09-30T12:50:53;14.60;99.90
10419;DHT22;5256;48.728;9.140;2022-09-30T12:53:28;14.60;99.90
10419;DHT22;5256;48.728;9.140;2022-09-30T12:56:02;14.60;99.90
10419;DHT22;5256;48.728;9.140;2022-09-30T12:58:36;14.90;99.90
10419;DHT22;5256;48.728;9.140;2022-09-30T13:01:14;14.90;99.90
10419;DHT22;5256;48.728;9.140;2022-09-30T13:06:09;14.90;99.90
10419;DHT22;5256;48.728;9.140;2022-09-30T13:09:06;14.70;99.90
10419;DHT22;5256;48.728;9.140;2022-09-30T13:11:36;14.70;99.90
10419;DHT22;5256;48.728;9.140;2022-09-30T13:14:13;15.00;99.90
10419;DHT22;5256;48.728;9.140;2022-09-30T13:17:20;15.30;99.90
10419;DHT22;5256;48.728;9.140;2022-09-30T13:19:48;15.40;99.90
10419;DHT22;5256;48.728;9.140;2022-09-30T13:35:33;15.20;99.90
10419;DHT22;5256;48.728;9.140;2022-09-30T13:40:44;15.20;99.90
10419;DHT22;5256;48.728;9.140;2022-09-30T13:43:21;15.20;99.90
10419;DHT22;5256;48.728;9.140;2022-09-30T13:45:52;15.20;99.90
10419;DHT22;5256;48.728;9.140;2022-09-30T13:48:24;15.20;99.90
10419;DHT22;5256;48.728;9.140;2022-09-30T13:50:53;15.20;99.90
10419;DHT22;5256;48.728;9.140;2022-09-30T13:53:27;15.30;99.90
10419;DHT22;5256;48.728;9.140;2022-09-30T13:55:55;15.40;99.90
10419;DHT22;5256;48.728;9.140;2022-09-30T14:00:56;15.70;99.90
10419;DHT22;5256;48.728;9.140;2022-09-30T14:06:11;15.90;99.90
10419;DHT22;5256;48.728;9.140;2022-09-30T14:09:06;16.00;99.90
10419;DHT22;5256;48.728;9.140;2022-09-30T14:20:11;16.70;98.50
10419;DHT22;5256;48.728;9.140;2022-09-30T14:22:40;16.60;97.70
10419;DHT22;5256;48.728;9.140;2022-09-30T14:25:15;16.40;98.50
10419;DHT22;5256;48.728;9.140;2022-09-30T14:28:02;16.30;97.90
10419;DHT22;5256;48.728;9.140;2022-09-30T14:30:33;16.30;98.50
10419;DHT22;5256;48.728;9.140;2022-09-30T14:33:18;16.50;98.60
10419;DHT22;5256;48.728;9.140;2022-09-30T14:35:52;16.40;98.70
10419;DHT22;5256;48.728;9.140;2022-09-30T14:38:21;16.60;98.90
10419;DHT22;5256;48.728;9.140;2022-09-30T14:40:50;16.60;98.30
10419;DHT22;5256;48.728;9.140;2022-09-30T14:43:20;16.60;98.60
10419;DHT22;5256;48.728;9.140;2022-09-30T14:45:51;16.70;98.40
10419;DHT22;5256;48.728;9.140;2022-09-30T14:48:22;16.80;97.80
10419;DHT22;5256;48.728;9.140;2022-09-30T14:50:59;16.80;98.30
10419;DHT22;5256;48.728;9.140;2022-09-30T14:53:31;16.90;98.10
10419;DHT22;5256;48.728;9.140;2022-09-30T14:55:58;17.00;97.30
10419;DHT22;5256;48.728;9.140;2022-09-30T14:58:25;17.30;96.40
10419;DHT22;5256;48.728;9.140;2022-09-30T15:03:31;17.90;96.90
10419;DHT22;5256;48.728;9.140;2022-09-30T15:06:19;18.30;96.90
10419;DHT22;5256;48.728;9.140;2022-09-30T15:08:45;18.70;96.60
10419;DHT22;5256;48.728;9.140;2022-09-30T15:11:23;18.90;95.60
10419;DHT22;5256;48.728;9.140;2022-09-30T15:14:04;19.30;95.30
10419;DHT22;5256;48.728;9.140;2022-09-30T15:16:32;20.00;95.10
10419;DHT22;5256;48.728;9.140;2022-09-30T15:18:58;20.40;94.50
10419;DHT22;5256;48.728;9.140;2022-09-30T15:21:26;20.50;94.50
10419;DHT22;5256;48.728;9.140;2022-09-30T15:23:54;20.80;93.70
10419;DHT22;5256;48.728;9.140;2022-09-30T15:26:23;21.00;92.90
10419;DHT22;5256;48.728;9.140;2022-09-30T15:28:49;20.40;93.60
10419;DHT22;5256;48.728;9.140;2022-09-30T15:31:25;20.60;93.90
10419;DHT22;5256;48.728;9.140;2022-09-30T15:34:17;20.30;92.60
10419;DHT22;5256;48.728;9.140;2022-09-30T15:36:45;20.10;92.90
10419;DHT22;5256;48.728;9.140;2022-09-30T15:39:24;19.90;93.20
10419;DHT22;5256;48.728;9.140;2022-09-30T15:42:12;20.00;93.20
10419;DHT22;5256;48.728;9.140;2022-09-30T15:44:39;19.30;93.00
10419;DHT22;5256;48.728;9.140;2022-09-30T15:47:07;18.80;93.20
10419;DHT22;5256;48.728;9.140;2022-09-30T15:52:39;17.40;94.80
10419;DHT22;5256;48.728;9.140;2022-09-30T15:55:43;16.70;95.30
10419;DHT22;5256;48.728;9.140;2022-09-30T15:58:40;16.00;95.90
10419;DHT22;5256;48.728;9.140;2022-09-30T16:01:46;15.70;97.10
10419;DHT22;5256;48.728;9.140;2022-09-30T16:04:11;15.20;98.10
10419;DHT22;5256;48.728;9.140;2022-09-30T16:14:32;14.20;99.90
10419;DHT22;5256;48.728;9.140;2022-09-30T16:17:01;14.10;99.90
10419;DHT22;5256;48.728;9.140;2022-09-30T16:19:28;13.90;99.90
10419;DHT22;5256;48.728;9.140;2022-09-30T16:21:55;13.70;99.90
10419;DHT22;5256;48.728;9.140;2022-09-30T16:27:35;13.20;99.90
10419;DHT22;5256;48.728;9.140;2022-09-30T16:29:36;13.00;99.90
10419;DHT22;5256;48.728;9.140;2022-09-30T16:32:01;12.90;99.90
10419;DHT22;5256;48.728;9.140;2022-09-30T16:34:28;12.90;99.90
10419;DHT22;5256;48.728;9.140;2022-09-30T16:37:03;12.70;99.90
10419;DHT22;5256;48.728;9.140;2022-09-30T16:39:30;12.60;99.90
10419;DHT22;5256;48.728;9.140;2022-09-30T16:41:55;12.50;99.90
10419;DHT22;5256;48.728;9.140;2022-09-30T16:44:21;12.40;99.90
10419;DHT22;5256;48.728;9.140;2022-09-30T16:46:49;12.30;99.90
10419;DHT22;5256;48.728;9.140;2022-09-30T16:49:17;12.30;99.90
10419;DHT22;5256;48.728;9.140;2022-09-30T16:51:43;12.30;99.90
10419;DHT22;5256;48.728;9.140;2022-09-30T16:54:09;12.10;99.90
10419;DHT22;5256;48.728;9.140;2022-09-30T16:56:35;11.90;99.90
10419;DHT22;5256;48.728;9.140;2022-09-30T16:59:01;11.80;99.90
10419;DHT22;5256;48.728;9.140;2022-09-30T17:01:27;11.60;99.90
10419;DHT22;5256;48.728;9.140;2022-09-30T17:03:54;11.40;99.90
10419;DHT22;5256;48.728;9.140;2022-09-30T17:06:24;11.30;99.90
10419;DHT22;5256;48.728;9.140;2022-09-30T17:08:51;11.10;99.90
10419;DHT22;5256;48.728;9.140;2022-09-30T17:11:28;11.00;99.90
10419;DHT22;5256;48.728;9.140;2022-09-30T17:13:56;10.90;99.90
10419;DHT22;5256;48.728;9.140;2022-09-30T17:16:22;10.70;99.90
10419;DHT22;5256;48.728;9.140;2022-09-30T17:18:48;10.60;99.90
10419;DHT22;5256;48.728;9.140;2022-09-30T17:21:21;10.40;99.90
10419;DHT22;5256;48.728;9.140;2022-09-30T17:23:47;10.20;99.90
10419;DHT22;5256;48.728;9.140;2022-09-30T17:26:13;10.00;99.90
10419;DHT22;5256;48.728;9.140;2022-09-30T17:28:39;9.90;99.90
10419;DHT22;5256;48.728;9.140;2022-09-30T17:31:04;9.80;99.90
10419;DHT22;5256;48.728;9.140;2022-09-30T17:33:33;9.70;99.90
10419;DHT22;5256;48.728;9.140;2022-09-30T17:36:01;9.60;99.90
10419;DHT22;5256;48.728;9.140;2022-09-30T17:38:28;9.50;99.90
10419;DHT22;5256;48.728;9.140;2022-09-30T17:40:53;9.40;99.90
10419;DHT22;5256;48.728;9.140;2022-09-30T17:43:38;9.30;99.90
10419;DHT22;5256;48.728;9.140;2022-09-30T17:46:04;9.30;99.90
10419;DHT22;5256;48.728;9.140;2022-09-30T17:48:30;9.30;99.90
10419;DHT22;5256;48.728;9.140;2022-09-30T17:50:56;9.10;99.90
10419;DHT22;5256;48.728;9.140;2022-09-30T17:53:22;9.00;99.90
10419;DHT22;5256;48.728;9.140;2022-09-30T17:56:06;8.80;99.90
10419;DHT22;5256;48.728;9.140;2022-09-30T17:58:37;8.70;99.90
10419;DHT22;5256;48.728;9.140;2022-09-30T18:01:08;8.70;99.90
10419;DHT22;5256;48.728;9.140;2022-09-30T18:03:35;8.60;99.90
10419;DHT22;5256;48.728;9.140;2022-09-30T18:06:01;8.50;99.90
10419;DHT22;5256;48.728;9.140;2022-09-30T18:08:27;8.50;99.90
10419;DHT22;5256;48.728;9.140;2022-09-30T18:10:53;8.50;99.90
10419;DHT22;5256;48.728;9.140;2022-09-30T18:13:19;8.50;99.90
10419;DHT22;5256;48.728;9.140;2022-09-30T18:15:45;8.40;99.90
10419;DHT22;5256;48.728;9.140;2022-09-30T18:18:12;8.30;99.90
10419;DHT22;5256;48.728;9.140;2022-09-30T18:20:48;8.20;99.90
10419;DHT22;5256;48.728;9.140;2022-09-30T18:23:15;8.10;99.90
10419;DHT22;5256;48.728;9.140;2022-09-30T18:25:43;8.10;99.90
10419;DHT22;5256;48.728;9.140;2022-09-30T18:28:10;8.00;99.90
10419;DHT22;5256;48.728;9.140;2022-09-30T18:30:36;7.90;99.90
10419;DHT22;5256;48.728;9.140;2022-09-30T18:33:02;7.90;99.90
10419;DHT22;5256;48.728;9.140;2022-09-30T18:35:33;7.80;99.90
10419;DHT22;5256;48.728;9.140;2022-09-30T18:38:00;7.70;99.90
10419;DHT22;5256;48.728;9.140;2022-09-30T18:40:27;7.70;99.90
10419;DHT22;5256;48.728;9.140;2022-09-30T18:42:55;7.70;99.90
10419;DHT22;5256;48.728;9.140;2022-09-30T18:45:23;7.70;99.90
10419;DHT22;5256;48.728;9.140;2022-09-30T18:47:54;7.70;99.90
10419;DHT22;5256;48.728;9.140;2022-09-30T18:50:20;7.60;99.90
10419;DHT22;5256;48.728;9.140;2022-09-30T18:52:47;7.60;99.90
10419;DHT22;5256;48.728;9.140;2022-09-30T18:55:15;7.50;99.90
10419;DHT22;5256;48.728;9.140;2022-09-30T18:57:41;7.50;99.90
10419;DHT22;5256;48.728;9.140;2022-09-30T19:00:08;7.40;99.90
10419;DHT22;5256;48.728;9.140;2022-09-30T19:02:36;7.50;99.90
10419;DHT22;5256;48.728;9.140;2022-09-30T19:05:04;7.50;99.90
10419;DHT22;5256;48.728;9.140;2022-09-30T19:07:30;7.50;99.90
10419;DHT22;5256;48.728;9.140;2022-09-30T19:09:58;7.50;99.90
10419;DHT22;5256;48.728;9.140;2022-09-30T19:12:24;7.50;99.90
10419;DHT22;5256;48.728;9.140;2022-09-30T19:14:52;7.50;99.90
10419;DHT22;5256;48.728;9.140;2022-09-30T19:17:19;7.40;99.90
10419;DHT22;5256;48.728;9.140;2022-09-30T19:19:45;7.70;99.90
10419;DHT22;5256;48.728;9.140;2022-09-30T19:22:11;7.90;99.90
10419;DHT22;5256;48.728;9.140;2022-09-30T19:24:38;8.00;99.90